createdAt,value
2019-06-07T00:01:09.645Z,62.47
2019-06-07T00:03:40.324Z,65.97
2019-06-07T00:06:15.098Z,64.09
2019-06-07T00:08:43.543Z,62.07
2019-06-07T00:11:17.783Z,60.08
2019-06-07T00:13:46.078Z,58.06
2019-06-07T00:16:20.847Z,56.26
2019-06-07T00:18:48.599Z,56.37
2019-06-07T00:21:20.469Z,57.59
2019-06-07T00:23:51.200Z,59.11
2019-06-07T00:26:21.691Z,60.13
2019-06-07T00:28:52.071Z,60.51
2019-06-07T00:31:24.666Z,63.03
2019-06-07T00:33:54.569Z,65.83
2019-06-07T00:36:24.980Z,64.88
2019-06-07T00:38:55.305Z,62.83
2019-06-07T00:41:25.722Z,60.86
2019-06-07T00:43:56.125Z,60.29
2019-06-07T00:46:26.620Z,57.04
2019-06-07T00:48:56.974Z,56.69
2019-06-07T00:51:27.367Z,58.40
2019-06-07T00:53:57.837Z,60.72
2019-06-07T00:56:28.405Z,63.04
2019-06-07T00:59:10.678Z,67.35
2019-06-07T01:01:30.861Z,65.46
2019-06-07T01:04:01.228Z,63.42
2019-06-07T01:06:31.624Z,62.31
2019-06-07T01:09:01.975Z,60.93
2019-06-07T01:11:32.457Z,59.72
2019-06-07T01:14:02.806Z,59.21
2019-06-07T01:16:55.329Z,57.33
2019-06-07T01:19:05.335Z,58.76
2019-06-07T01:21:35.815Z,59.25
2019-06-07T01:24:11.991Z,61.48
2019-06-07T01:26:38.324Z,62.69
2019-06-07T01:29:09.354Z,67.22
2019-06-07T01:31:39.861Z,66.20
2019-06-07T01:34:10.224Z,65.26
2019-06-07T01:36:40.601Z,62.78
2019-06-07T01:39:10.948Z,61.79
2019-06-07T01:41:41.363Z,60.59
2019-06-07T01:44:11.790Z,60.25
2019-06-07T01:46:42.186Z,59.17
2019-06-07T01:49:12.627Z,57.60
2019-06-07T01:51:43.117Z,58.05
2019-06-07T01:54:49.472Z,59.33
2019-06-07T01:56:45.635Z,60.68
2019-06-07T01:59:17.664Z,61.65
2019-06-07T02:01:48.359Z,64.09
2019-06-07T02:04:21.575Z,68.56
2019-06-07T02:06:50.897Z,67.49
2019-06-07T02:09:23.364Z,65.46
2019-06-07T02:11:53.447Z,63.47
2019-06-07T02:14:27.353Z,62.00
2019-06-07T02:16:55.984Z,60.82
2019-06-07T02:19:27.470Z,60.64
2019-06-07T02:21:58.514Z,59.44
2019-06-07T02:24:32.388Z,57.93
2019-06-07T02:27:01.032Z,59.24
2019-06-07T02:29:33.426Z,60.53
2019-06-07T02:32:04.762Z,63.13
2019-06-07T02:34:38.562Z,67.74
2019-06-07T02:37:07.226Z,66.40
2019-06-07T02:39:40.829Z,64.66
2019-06-07T02:42:09.699Z,63.04
2019-06-07T02:44:40.538Z,61.99
2019-06-07T02:47:11.160Z,60.93
2019-06-07T02:49:42.341Z,60.31
2019-06-07T02:52:13.686Z,59.50
2019-06-07T02:54:44.060Z,58.12
2019-06-07T02:57:14.646Z,58.88
2019-06-07T03:00:07.109Z,60.30
2019-06-07T03:02:17.202Z,62.18
2019-06-07T03:04:47.650Z,65.72
2019-06-07T03:07:18.058Z,65.42
2019-06-07T03:09:48.507Z,63.34
2019-06-07T03:12:19.161Z,62.17
2019-06-07T03:14:49.519Z,61.64
2019-06-07T03:17:22.636Z,60.00
2019-06-07T03:20:01.171Z,59.34
2019-06-07T03:22:35.084Z,57.76
2019-06-07T03:25:05.886Z,58.03
2019-06-07T03:27:48.295Z,59.15
2019-06-07T03:30:35.889Z,60.91
2019-06-07T03:32:47.182Z,62.67
2019-06-07T03:35:13.924Z,66.17
2019-06-07T03:37:44.405Z,64.98
2019-06-07T03:40:14.762Z,63.19
2019-06-07T03:42:45.161Z,61.39
2019-06-07T03:45:15.601Z,60.27
2019-06-07T03:47:46.036Z,59.07
2019-06-07T03:50:16.466Z,57.29
2019-06-07T03:52:46.839Z,57.92
2019-06-07T03:55:17.703Z,59.76
2019-06-07T03:58:30.143Z,60.49
2019-06-07T04:00:20.170Z,62.36
2019-06-07T04:02:50.691Z,66.55
2019-06-07T04:05:21.125Z,65.55
2019-06-07T04:07:51.548Z,63.65
2019-06-07T04:10:45.380Z,61.45
2019-06-07T04:12:54.393Z,60.54
2019-06-07T04:15:24.968Z,58.76
2019-06-07T04:18:01.728Z,57.22
2019-06-07T04:20:29.472Z,56.74
2019-06-07T04:23:00.356Z,58.66
2019-06-07T04:25:33.871Z,59.99
2019-06-07T04:28:03.123Z,60.98
2019-06-07T04:30:41.970Z,62.72
2019-06-07T04:33:13.690Z,65.37
2019-06-07T04:35:45.247Z,64.05
2019-06-07T04:38:15.955Z,61.70
2019-06-07T04:40:47.124Z,59.49
2019-06-07T04:43:17.771Z,56.31
2019-06-07T04:45:51.445Z,55.92
2019-06-07T04:48:22.307Z,57.17
2019-06-07T04:50:52.658Z,58.67
2019-06-07T04:53:23.136Z,59.42
2019-06-07T04:55:53.666Z,60.17
2019-06-07T04:58:24.083Z,60.53
2019-06-07T05:01:02.589Z,61.54
2019-06-07T05:03:26.715Z,61.92
2019-06-07T05:05:57.080Z,62.77
2019-06-07T05:08:29.983Z,65.13
2019-06-07T05:10:59.558Z,62.99
2019-06-07T05:13:31.419Z,60.35
2019-06-07T05:16:02.013Z,57.81
2019-06-07T05:18:33.679Z,55.32
2019-06-07T05:21:04.553Z,54.75
2019-06-07T05:24:05.922Z,55.69
2019-06-07T05:26:07.107Z,56.33
2019-06-07T05:28:40.626Z,58.07
2019-06-07T05:31:09.917Z,58.53
2019-06-07T05:33:41.253Z,58.90
2019-06-07T05:36:13.182Z,59.63
2019-06-07T05:38:44.903Z,59.48
2019-06-07T05:41:16.207Z,60.71
2019-06-07T05:44:00.278Z,60.40
2019-06-07T05:46:21.344Z,60.06
2019-06-07T05:48:51.780Z,60.41
2019-06-07T05:51:22.276Z,60.94
2019-06-07T05:53:52.772Z,61.15
2019-06-07T05:56:23.172Z,61.42
2019-06-07T05:58:53.570Z,60.53
2019-06-07T06:01:43.165Z,61.05
2019-06-07T06:03:56.176Z,60.62
2019-06-07T06:06:26.624Z,60.90
2019-06-07T06:09:12.997Z,60.61
2019-06-07T06:11:43.290Z,61.04
2019-06-07T06:14:07.299Z,60.27
2019-06-07T06:16:34.600Z,60.29
2019-06-07T06:19:05.152Z,59.67
2019-06-07T06:21:36.185Z,60.16
2019-06-07T06:24:06.724Z,59.78
2019-06-07T06:26:45.446Z,59.85
2019-06-07T06:29:09.199Z,59.44
2019-06-07T06:31:49.214Z,59.15
2019-06-07T06:34:11.841Z,59.04
2019-06-07T06:36:44.604Z,57.78
2019-06-07T06:39:14.484Z,57.92
2019-06-07T06:41:57.514Z,58.32
2019-06-07T06:44:17.095Z,58.23
2019-06-07T06:46:57.051Z,58.00
2019-06-07T06:49:19.939Z,57.48
2019-06-07T06:51:53.443Z,57.15
2019-06-07T06:54:40.105Z,56.30
2019-06-07T06:57:17.162Z,56.96
2019-06-07T06:59:38.837Z,56.58
2019-06-07T07:01:59.004Z,56.85
2019-06-07T07:04:29.576Z,56.50
2019-06-07T07:07:00.024Z,56.06
2019-06-07T07:09:30.655Z,55.57
2019-06-07T07:12:12.230Z,55.72
2019-06-07T07:14:33.500Z,54.98
2019-06-07T07:17:04.481Z,54.16
2019-06-07T07:19:34.922Z,54.21
2019-06-07T07:22:05.391Z,54.52
2019-06-07T07:24:36.010Z,53.33
2019-06-07T07:27:06.537Z,52.99
2019-06-07T07:29:38.039Z,53.13
2019-06-07T07:32:09.072Z,52.98
2019-06-07T07:34:41.255Z,52.54
2019-06-07T07:37:11.717Z,52.45
2019-06-07T07:39:45.252Z,52.25
2019-06-07T07:42:21.117Z,51.23
2019-06-07T07:44:48.723Z,51.39
2019-06-07T07:47:18.848Z,51.02
2019-06-07T07:49:52.998Z,50.60
2019-06-07T07:52:21.975Z,50.39
2019-06-07T07:54:56.270Z,50.50
2019-06-07T07:57:24.517Z,50.04
2019-06-07T08:00:25.290Z,48.71
2019-06-07T08:02:26.984Z,48.19
2019-06-07T08:07:30.243Z,48.47
2019-06-07T08:10:03.811Z,48.55
2019-06-07T08:12:55.623Z,47.90
2019-06-07T08:15:08.405Z,48.23
2019-06-07T08:17:38.761Z,48.03
2019-06-07T08:20:11.090Z,48.24
2019-06-07T08:22:41.564Z,48.22
2019-06-07T08:25:13.519Z,48.72
2019-06-07T08:27:43.885Z,48.82
2019-06-07T08:30:47.345Z,47.41
2019-06-07T08:32:54.604Z,47.13
2019-06-07T08:36:02.935Z,45.78
2019-06-07T08:38:25.307Z,45.51
2019-06-07T08:40:26.653Z,44.71
2019-06-07T08:43:15.073Z,44.36
2019-06-07T08:45:29.508Z,44.50
2019-06-07T08:48:05.392Z,43.74
2019-06-07T08:50:32.439Z,44.51
2019-06-07T08:53:11.460Z,43.94
2019-06-07T08:55:35.000Z,43.16
2019-06-07T08:58:08.621Z,43.50
2019-06-07T09:00:46.958Z,43.27
2019-06-07T09:03:09.758Z,43.85
2019-06-07T09:05:40.150Z,43.55
2019-06-07T09:08:29.258Z,44.05
2019-06-07T09:10:42.578Z,43.54
2019-06-07T09:13:13.069Z,44.08
2019-06-07T09:15:43.540Z,43.61
2019-06-07T09:20:49.052Z,44.38
2019-06-07T09:23:19.486Z,44.33
2019-06-07T09:26:02.584Z,44.58
2019-06-07T09:28:21.986Z,43.93
2019-06-07T09:30:52.368Z,44.59
2019-06-07T09:33:22.790Z,43.53
2019-06-07T09:35:53.244Z,43.25
2019-06-07T09:38:26.106Z,44.06
2019-06-07T09:40:57.500Z,43.88
2019-06-07T09:44:00.745Z,42.61
2019-06-07T09:46:04.651Z,42.77
2019-06-07T09:49:12.328Z,43.57
2019-06-07T09:51:17.157Z,43.60
2019-06-07T09:53:37.198Z,42.78
2019-06-07T09:56:11.726Z,42.52
2019-06-07T09:58:55.497Z,43.13
2019-06-07T10:01:13.666Z,43.15
2019-06-07T10:03:44.519Z,42.48
2019-06-07T10:06:15.017Z,43.10
2019-06-07T10:11:17.569Z,44.20
2019-06-07T10:13:47.994Z,44.58
2019-06-07T10:16:18.381Z,42.35
2019-06-07T10:18:48.867Z,43.61
2019-06-07T10:21:19.420Z,43.31
2019-06-07T10:23:49.827Z,43.01
2019-06-07T10:26:20.232Z,42.97
2019-06-07T10:28:53.438Z,43.21
2019-06-07T10:31:22.763Z,43.31
2019-06-07T10:33:54.122Z,42.58
2019-06-07T10:36:24.757Z,42.86
2019-06-07T10:38:55.126Z,41.61
2019-06-07T10:41:25.536Z,41.57
2019-06-07T10:43:55.983Z,41.71
2019-06-07T10:46:26.471Z,41.03
2019-06-07T10:48:56.923Z,40.17
2019-06-07T10:51:27.478Z,41.17
2019-06-07T10:53:57.914Z,41.40
2019-06-07T10:56:28.397Z,41.82
2019-06-07T10:58:58.826Z,41.81
2019-06-07T11:01:29.313Z,41.70
2019-06-07T11:03:59.731Z,41.36
2019-06-07T11:06:30.405Z,41.88
2019-06-07T11:09:00.757Z,42.53
2019-06-07T11:11:31.204Z,42.11
2019-06-07T11:14:01.563Z,41.71
2019-06-07T11:16:31.968Z,41.96
2019-06-07T11:19:02.387Z,41.21
2019-06-07T11:21:32.854Z,41.44
2019-06-07T11:24:03.317Z,41.31
2019-06-07T11:26:33.774Z,40.25
2019-06-07T11:29:06.669Z,41.19
2019-06-07T11:31:37.270Z,41.30
2019-06-07T11:34:08.362Z,41.04
2019-06-07T11:36:38.923Z,41.05
2019-06-07T11:39:11.091Z,40.94
2019-06-07T11:41:42.012Z,39.85
2019-06-07T11:44:12.970Z,39.33
2019-06-07T11:46:43.751Z,39.26
2019-06-07T11:49:19.831Z,38.93
2019-06-07T11:51:46.352Z,37.80
2019-06-07T11:54:20.305Z,38.72
2019-06-07T11:56:49.034Z,39.16
2019-06-07T11:59:19.635Z,38.69
2019-06-07T12:01:50.114Z,38.07
2019-06-07T12:04:32.493Z,37.57
2019-06-07T12:06:52.601Z,37.68
2019-06-07T12:09:23.035Z,38.61
2019-06-07T12:11:53.466Z,37.58
2019-06-07T12:14:23.885Z,37.76
2019-06-07T12:16:54.258Z,38.29
2019-06-07T12:19:24.646Z,37.21
2019-06-07T12:21:55.063Z,36.59
2019-06-07T12:24:25.485Z,36.27
2019-06-07T12:26:56.004Z,35.95
2019-06-07T12:29:26.338Z,35.85
2019-06-07T12:31:56.819Z,35.56
2019-06-07T12:34:27.870Z,34.92
2019-06-07T12:36:58.283Z,35.18
2019-06-07T12:39:28.723Z,35.02
2019-06-07T12:41:59.142Z,35.25
2019-06-07T12:44:29.605Z,35.14
2019-06-07T12:46:59.952Z,35.61
2019-06-07T12:49:30.575Z,35.84
2019-06-07T12:52:01.082Z,35.41
2019-06-07T12:54:31.453Z,35.55
2019-06-07T12:57:01.873Z,34.36
2019-06-07T12:59:32.275Z,33.68
2019-06-07T13:02:02.796Z,33.98
2019-06-07T13:04:33.334Z,33.91
2019-06-07T13:07:03.861Z,33.91
2019-06-07T13:09:36.124Z,34.21
2019-06-07T13:12:06.425Z,33.23
2019-06-07T13:14:36.811Z,33.71
2019-06-07T13:17:07.414Z,33.71
2019-06-07T13:19:37.910Z,33.34
2019-06-07T13:22:08.449Z,32.53
2019-06-07T13:24:38.919Z,32.93
2019-06-07T13:27:09.913Z,33.11
2019-06-07T13:29:40.426Z,33.69
2019-06-07T13:32:10.825Z,34.23
2019-06-07T13:34:41.313Z,34.67
2019-06-07T13:37:11.719Z,34.69
2019-06-07T13:39:42.090Z,35.32
2019-06-07T13:42:12.630Z,35.77
2019-06-07T13:44:43.130Z,35.41
2019-06-07T13:47:13.515Z,35.57
2019-06-07T13:49:44.025Z,34.54
2019-06-07T13:52:14.582Z,34.33
2019-06-07T13:54:45.009Z,34.37
2019-06-07T13:57:15.967Z,33.57
2019-06-07T13:59:46.487Z,33.71
2019-06-07T14:02:18.417Z,32.21
2019-06-07T14:04:49.066Z,32.99
2019-06-07T14:07:21.183Z,33.40
2019-06-07T14:09:51.764Z,33.28
2019-06-07T14:12:24.031Z,32.94
2019-06-07T14:14:54.703Z,32.94
2019-06-07T14:17:25.372Z,32.97
2019-06-07T14:19:55.852Z,33.33
2019-06-07T14:22:26.883Z,32.77
2019-06-07T14:24:57.345Z,32.03
2019-06-07T14:27:27.848Z,31.35
2019-06-07T14:29:58.303Z,31.52
2019-06-07T14:32:28.825Z,31.20
2019-06-07T14:34:59.301Z,31.05
2019-06-07T14:37:30.977Z,31.89
2019-06-07T14:40:01.578Z,31.23
2019-06-07T14:42:33.355Z,31.27
2019-06-07T14:45:06.350Z,30.39
2019-06-07T14:47:37.010Z,30.68
2019-06-07T14:50:09.592Z,30.52
2019-06-07T14:52:40.020Z,31.12
2019-06-07T14:55:10.398Z,31.44
2019-06-07T14:57:40.817Z,32.24
2019-06-07T15:00:13.510Z,32.71
2019-06-07T15:02:44.015Z,32.93
2019-06-07T15:05:15.169Z,33.43
2019-06-07T15:07:45.954Z,33.90
2019-06-07T15:10:16.470Z,34.06
2019-06-07T15:12:47.001Z,34.60
2019-06-07T15:15:17.408Z,33.74
2019-06-07T15:17:47.909Z,32.90
2019-06-07T15:20:18.279Z,32.87
2019-06-07T15:22:48.678Z,33.00
2019-06-07T15:25:20.079Z,33.91
2019-06-07T15:27:50.569Z,33.82
2019-06-07T15:30:21.211Z,34.12
2019-06-07T15:32:51.651Z,33.16
2019-06-07T15:35:22.076Z,33.38
2019-06-07T15:37:52.597Z,33.60
2019-06-07T15:40:23.225Z,33.29
2019-06-07T15:42:53.617Z,32.91
2019-06-07T15:45:23.968Z,32.95
2019-06-07T15:47:54.933Z,33.53
2019-06-07T15:50:28.624Z,34.04
2019-06-07T15:52:57.468Z,34.48
2019-06-07T15:55:27.927Z,33.83
2019-06-07T15:57:58.393Z,33.73
2019-06-07T16:00:28.791Z,33.78
2019-06-07T16:02:59.276Z,34.10
2019-06-07T16:05:31.938Z,34.69
2019-06-07T16:08:02.392Z,35.23
2019-06-07T16:10:32.763Z,35.94
2019-06-07T16:13:03.402Z,35.84
2019-06-07T16:15:34.740Z,36.99
2019-06-07T16:18:05.876Z,38.11
2019-06-07T16:20:37.358Z,38.76
2019-06-07T16:23:07.908Z,39.37
2019-06-07T16:25:38.364Z,39.68
2019-06-07T16:28:08.759Z,40.47
2019-06-07T16:30:40.507Z,40.40
2019-06-07T16:33:11.071Z,40.99
2019-06-07T16:35:41.523Z,41.11
2019-06-07T16:38:12.057Z,41.28
2019-06-07T16:40:42.590Z,41.23
2019-06-07T16:43:17.779Z,41.73
2019-06-07T16:45:45.073Z,41.84
2019-06-07T16:48:15.532Z,41.94
2019-06-07T16:50:45.907Z,41.90
2019-06-07T16:53:16.890Z,42.52
2019-06-07T16:55:47.343Z,42.40
2019-06-07T16:58:17.843Z,42.38
2019-06-07T17:00:49.566Z,42.58
2019-06-07T17:03:19.954Z,42.78
2019-06-07T17:05:50.706Z,43.13
2019-06-07T17:08:21.170Z,43.44
2019-06-07T17:10:51.610Z,43.69
2019-06-07T17:13:32.848Z,43.90
2019-06-07T17:15:54.156Z,43.94
2019-06-07T17:18:24.678Z,44.20
2019-06-07T17:20:55.073Z,44.43
2019-06-07T17:23:25.477Z,44.73
2019-06-07T17:25:55.938Z,45.09
2019-06-07T17:28:26.320Z,45.17
2019-06-07T17:30:56.818Z,45.24
2019-06-07T17:33:28.396Z,45.48
2019-06-07T17:35:58.814Z,45.49
2019-06-07T17:38:29.472Z,45.74
2019-06-07T17:41:00.130Z,46.47
2019-06-07T17:43:30.914Z,46.62
2019-06-07T17:46:01.784Z,46.96
2019-06-07T17:48:32.529Z,47.15
2019-06-07T17:51:02.905Z,47.53
2019-06-07T17:53:33.374Z,47.86
2019-06-07T17:56:03.760Z,47.79
2019-06-07T17:58:34.188Z,48.69
2019-06-07T18:01:04.629Z,48.69
2019-06-07T18:03:35.091Z,48.97
2019-06-07T18:06:05.661Z,49.33
2019-06-07T18:08:36.086Z,49.03
2019-06-07T18:11:06.548Z,49.12
2019-06-07T18:13:36.968Z,49.94
2019-06-07T18:16:07.556Z,49.74
2019-06-07T18:18:38.252Z,50.06
2019-06-07T18:21:08.702Z,49.78
2019-06-07T18:23:39.190Z,49.83
2019-06-07T18:26:09.887Z,49.56
2019-06-07T18:28:40.580Z,49.99
2019-06-07T18:31:11.009Z,49.95
2019-06-07T18:33:41.435Z,49.53
2019-06-07T18:36:11.935Z,49.44
2019-06-07T18:38:42.379Z,49.46
2019-06-07T18:41:12.787Z,49.74
2019-06-07T18:43:43.192Z,49.89
2019-06-07T18:46:13.665Z,49.87
2019-06-07T18:48:44.067Z,49.99
2019-06-07T18:51:14.639Z,49.84
2019-06-07T18:53:45.196Z,50.16
2019-06-07T18:56:16.108Z,51.00
2019-06-07T18:58:47.133Z,51.09
2019-06-07T19:01:17.650Z,51.51
2019-06-07T19:03:49.116Z,51.75
2019-06-07T19:06:20.287Z,52.04
2019-06-07T19:08:54.770Z,52.54
2019-06-07T19:11:22.990Z,52.77
2019-06-07T19:13:53.406Z,53.27
2019-06-07T19:16:24.361Z,53.55
2019-06-07T19:18:55.870Z,54.26
2019-06-07T19:21:26.424Z,54.90
2019-06-07T19:23:58.048Z,55.21
2019-06-07T19:26:28.638Z,55.54
2019-06-07T19:28:59.094Z,55.85
2019-06-07T19:31:29.510Z,56.73
2019-06-07T19:34:01.271Z,57.19
2019-06-07T19:36:31.902Z,57.38
2019-06-07T19:39:02.404Z,57.55
2019-06-07T19:41:32.857Z,58.02
2019-06-07T19:44:03.316Z,58.02
2019-06-07T19:46:33.688Z,58.46
2019-06-07T19:49:04.270Z,58.67
2019-06-07T19:51:34.693Z,57.75
2019-06-07T19:54:05.201Z,59.14
2019-06-07T19:56:35.663Z,59.41
2019-06-07T19:59:06.095Z,59.29
2019-06-07T20:01:36.621Z,60.08
2019-06-07T20:04:07.133Z,60.44
2019-06-07T20:06:37.520Z,60.82
2019-06-07T20:09:08.392Z,61.21
2019-06-07T20:11:38.868Z,61.82
2019-06-07T20:14:09.363Z,62.22
2019-06-07T20:16:39.870Z,62.54
2019-06-07T20:19:10.330Z,65.00
2019-06-07T20:21:40.822Z,63.93
2019-06-07T20:24:24.808Z,61.32
2019-06-07T20:26:43.475Z,59.58
2019-06-07T20:29:25.338Z,57.63
2019-06-07T20:31:46.197Z,56.04
2019-06-07T20:34:16.625Z,55.53
2019-06-07T20:36:47.133Z,56.27
2019-06-07T20:39:18.147Z,57.23
2019-06-07T20:41:48.600Z,58.14
2019-06-07T20:44:19.285Z,59.07
2019-06-07T20:46:49.754Z,60.01
2019-06-07T20:49:20.164Z,60.72
2019-06-07T20:51:50.520Z,61.43
2019-06-07T20:54:20.964Z,62.28
2019-06-07T20:56:51.351Z,64.67
2019-06-07T20:59:22.553Z,64.36
2019-06-07T21:01:52.938Z,62.65
2019-06-07T21:04:23.427Z,60.90
2019-06-07T21:06:53.890Z,58.96
2019-06-07T21:09:24.302Z,57.24
2019-06-07T21:11:55.169Z,57.11
2019-06-07T21:14:25.773Z,57.79
2019-06-07T21:16:56.168Z,58.77
2019-06-07T21:19:26.680Z,59.80
2019-06-07T21:21:57.154Z,60.96
2019-06-07T21:24:27.636Z,62.05
2019-06-07T21:26:58.021Z,63.41
2019-06-07T21:29:28.521Z,66.96
2019-06-07T21:31:58.897Z,65.88
2019-06-07T21:34:29.389Z,64.13
2019-06-07T21:37:01.685Z,62.56
2019-06-07T21:39:32.476Z,61.15
2019-06-07T21:42:04.222Z,59.50
2019-06-07T21:44:34.723Z,57.84
2019-06-07T21:47:06.377Z,57.93
2019-06-07T21:49:36.954Z,59.24
2019-06-07T21:52:08.674Z,60.94
2019-06-07T21:54:39.207Z,62.14
2019-06-07T21:57:09.624Z,65.41
2019-06-07T21:59:40.118Z,64.77
2019-06-07T22:02:11.629Z,63.17
2019-06-07T22:04:42.068Z,61.92
2019-06-07T22:07:13.591Z,61.04
2019-06-07T22:09:44.189Z,60.09
2019-06-07T22:12:14.633Z,59.25
2019-06-07T22:14:45.140Z,57.83
2019-06-07T22:17:15.531Z,57.92
2019-06-07T22:19:45.970Z,58.90
2019-06-07T22:22:16.342Z,60.15
2019-06-07T22:24:46.770Z,61.67
2019-06-07T22:27:17.729Z,63.07
2019-06-07T22:29:48.244Z,66.68
2019-06-07T22:32:19.169Z,66.07
2019-06-07T22:34:49.605Z,64.63
2019-06-07T22:37:23.400Z,63.14
2019-06-07T22:39:52.346Z,61.92
2019-06-07T22:42:22.755Z,60.93
2019-06-07T22:44:53.903Z,60.11
2019-06-07T22:47:24.541Z,59.30
2019-06-07T22:49:56.228Z,58.08
2019-06-07T22:52:26.679Z,58.04
2019-06-07T22:54:57.120Z,58.99
2019-06-07T22:57:29.272Z,59.75
2019-06-07T22:59:59.783Z,60.95
2019-06-07T23:02:30.234Z,62.15
2019-06-07T23:05:04.618Z,65.92
2019-06-07T23:07:32.904Z,65.28
2019-06-07T23:10:04.765Z,63.72
2019-06-07T23:12:35.203Z,62.66
2019-06-07T23:15:09.308Z,61.71
2019-06-07T23:17:39.838Z,61.43
2019-06-07T23:20:11.719Z,60.91
2019-06-07T23:22:42.340Z,60.18
2019-06-07T23:25:15.040Z,59.62
2019-06-07T23:27:44.966Z,58.93
2019-06-07T23:30:16.562Z,57.50
2019-06-07T23:32:47.244Z,58.35
2019-06-07T23:35:18.969Z,60.47
2019-06-07T23:37:49.577Z,62.47
2019-06-07T23:40:21.559Z,65.66
2019-06-07T23:42:52.159Z,65.26
2019-06-07T23:45:22.806Z,63.71
2019-06-07T23:47:53.218Z,62.06
2019-06-07T23:50:23.612Z,60.65
2019-06-07T23:52:54.080Z,59.47
2019-06-07T23:55:24.569Z,58.23
2019-06-07T23:57:55.038Z,58.75
